createdAt,value
2019-02-26T00:01:55.042Z,22.47
2019-02-26T00:04:27.188Z,22.80
2019-02-26T00:06:57.962Z,21.47
2019-02-26T00:09:30.520Z,21.73
2019-02-26T00:12:01.212Z,21.20
2019-02-26T00:14:31.557Z,22.97
2019-02-26T00:17:06.173Z,21.07
2019-02-26T00:19:34.356Z,20.83
2019-02-26T00:22:07.763Z,21.50
2019-02-26T00:24:39.746Z,22.23
2019-02-26T00:27:09.977Z,21.70
2019-02-26T00:29:40.325Z,22.13
2019-02-26T00:32:12.244Z,20.77
2019-02-26T00:34:42.727Z,20.90
2019-02-26T00:37:13.133Z,21.13
2019-02-26T00:39:56.366Z,21.43
2019-02-26T00:42:28.658Z,20.97
2019-02-26T00:45:00.953Z,21.53
2019-02-26T00:47:33.847Z,21.40
2019-02-26T00:50:02.865Z,22.77
2019-02-26T00:52:34.840Z,21.33
2019-02-26T00:55:07.112Z,21.57
2019-02-26T00:57:40.692Z,22.53
2019-02-26T01:00:13.415Z,21.23
2019-02-26T01:02:43.794Z,22.40
2019-02-26T01:05:15.707Z,21.77
2019-02-26T01:07:49.300Z,21.10
2019-02-26T01:10:21.054Z,21.57
2019-02-26T01:12:50.810Z,21.40
2019-02-26T01:15:21.164Z,21.40
2019-02-26T01:17:51.569Z,22.00
2019-02-26T01:20:24.293Z,22.73
2019-02-26T01:22:54.029Z,21.53
2019-02-26T01:25:24.384Z,21.80
2019-02-26T01:27:56.291Z,22.37
2019-02-26T01:30:28.906Z,22.00
2019-02-26T01:33:00.552Z,22.83
2019-02-26T01:35:33.169Z,22.30
2019-02-26T01:38:04.182Z,21.93
2019-02-26T01:40:34.562Z,22.53
2019-02-26T01:43:05.632Z,22.07
2019-02-26T01:45:36.069Z,22.63
2019-02-26T01:48:08.748Z,23.20
2019-02-26T01:50:40.587Z,22.60
2019-02-26T01:53:12.127Z,22.20
2019-02-26T01:55:44.145Z,22.10
2019-02-26T01:58:16.570Z,22.67
2019-02-26T02:00:46.655Z,22.57
2019-02-26T02:03:18.922Z,21.73
2019-02-26T02:05:50.290Z,22.40
2019-02-26T02:08:24.458Z,22.93
2019-02-26T02:10:56.281Z,22.80
2019-02-26T02:13:28.265Z,22.20
2019-02-26T02:15:57.594Z,22.03
2019-02-26T02:18:29.884Z,22.83
2019-02-26T02:21:00.385Z,23.77
2019-02-26T02:23:30.859Z,23.10
2019-02-26T02:26:04.079Z,23.27
2019-02-26T02:28:35.147Z,23.40
2019-02-26T02:31:05.308Z,22.30
2019-02-26T02:33:37.513Z,22.87
2019-02-26T02:36:11.528Z,24.00
2019-02-26T02:38:39.798Z,23.73
2019-02-26T02:41:10.162Z,24.40
2019-02-26T02:43:40.552Z,24.47
2019-02-26T02:46:10.906Z,25.57
2019-02-26T02:48:41.518Z,23.83
2019-02-26T02:51:13.896Z,24.03
2019-02-26T02:53:45.188Z,23.80
2019-02-26T02:56:17.840Z,25.97
2019-02-26T02:58:51.597Z,25.73
2019-02-26T03:01:22.957Z,25.37
2019-02-26T03:03:55.617Z,24.60
2019-02-26T03:06:29.516Z,25.30
2019-02-26T03:08:57.261Z,26.10
2019-02-26T03:11:27.607Z,24.87
2019-02-26T03:13:59.466Z,25.50
2019-02-26T03:16:29.826Z,25.40
2019-02-26T03:19:00.225Z,25.43
2019-02-26T03:21:30.749Z,27.33
2019-02-26T03:24:03.353Z,26.60
2019-02-26T03:26:33.159Z,24.63
2019-02-26T03:29:03.565Z,26.93
2019-02-26T03:31:35.095Z,27.53
2019-02-26T03:34:10.407Z,27.13
2019-02-26T03:36:40.190Z,28.17
2019-02-26T03:39:10.087Z,27.23
2019-02-26T03:41:40.453Z,27.43
2019-02-26T03:44:10.841Z,28.30
2019-02-26T03:46:41.227Z,28.17
2019-02-26T03:49:11.633Z,27.83
2019-02-26T03:51:42.021Z,28.97
2019-02-26T03:54:12.461Z,27.50
2019-02-26T03:56:42.862Z,29.00
2019-02-26T03:59:13.214Z,29.17
2019-02-26T04:01:43.621Z,29.70
2019-02-26T04:04:13.980Z,29.07
2019-02-26T04:06:46.979Z,27.70
2019-02-26T04:09:19.592Z,28.70
2019-02-26T04:11:51.028Z,28.03
2019-02-26T04:14:22.902Z,29.43
2019-02-26T04:16:55.942Z,27.43
2019-02-26T04:19:26.742Z,28.63
2019-02-26T04:22:27.961Z,28.40
2019-02-26T04:25:09.233Z,29.23
2019-02-26T04:28:07.760Z,28.93
2019-02-26T04:31:35.084Z,29.40
2019-02-26T04:34:51.420Z,30.00
2019-02-26T04:38:15.005Z,28.50
2019-02-26T04:41:22.249Z,28.07
2019-02-26T04:44:42.953Z,29.70
2019-02-26T04:47:21.985Z,29.37
2019-02-26T04:49:54.412Z,30.40
2019-02-26T04:52:24.847Z,31.57
2019-02-26T04:54:55.223Z,29.17
2019-02-26T04:57:25.597Z,31.47
2019-02-26T04:59:58.374Z,30.00
2019-02-26T05:02:28.290Z,31.30
2019-02-26T05:04:58.638Z,32.43
2019-02-26T05:07:29.047Z,30.50
2019-02-26T05:10:01.901Z,30.87
2019-02-26T05:12:34.045Z,30.77
2019-02-26T05:15:03.403Z,32.47
2019-02-26T05:17:34.802Z,32.90
2019-02-26T05:20:07.170Z,31.90
2019-02-26T05:22:37.317Z,33.20
2019-02-26T05:25:10.851Z,31.27
2019-02-26T05:27:44.664Z,32.70
2019-02-26T05:30:16.494Z,31.63
2019-02-26T05:32:45.545Z,32.63
2019-02-26T05:35:19.647Z,31.97
2019-02-26T05:37:48.853Z,33.13
2019-02-26T05:40:22.214Z,35.00
2019-02-26T05:42:53.345Z,33.70
2019-02-26T05:45:26.347Z,34.80
2019-02-26T05:47:58.799Z,34.47
2019-02-26T05:50:30.187Z,32.90
2019-02-26T05:53:01.837Z,35.87
2019-02-26T05:55:33.844Z,35.63
2019-02-26T05:58:04.294Z,34.77
2019-02-26T06:00:34.675Z,34.43
2019-02-26T06:03:07.196Z,36.47
2019-02-26T06:05:41.165Z,35.80
2019-02-26T06:08:09.114Z,35.60
2019-02-26T06:10:39.490Z,36.47
2019-02-26T06:13:10.744Z,35.30
2019-02-26T06:15:41.951Z,35.33
2019-02-26T06:18:12.286Z,35.70
2019-02-26T06:20:42.638Z,36.27
2019-02-26T06:23:13.009Z,37.30
2019-02-26T06:25:43.401Z,35.97
2019-02-26T06:28:16.005Z,35.33
2019-02-26T06:30:45.737Z,36.67
2019-02-26T06:33:16.485Z,35.47
2019-02-26T06:35:47.053Z,36.30
2019-02-26T06:38:17.393Z,35.90
2019-02-26T06:40:49.123Z,36.60
2019-02-26T06:43:19.774Z,37.07
2019-02-26T06:45:50.113Z,36.37
2019-02-26T06:48:24.465Z,36.93
2019-02-26T06:50:52.466Z,37.97
2019-02-26T06:53:23.057Z,37.63
2019-02-26T06:55:53.545Z,37.50
2019-02-26T06:58:28.535Z,36.53
2019-02-26T07:00:59.977Z,37.20
2019-02-26T07:03:30.377Z,37.07
2019-02-26T07:06:04.118Z,36.40
2019-02-26T07:08:33.597Z,37.50
2019-02-26T07:11:04.044Z,37.27
2019-02-26T07:13:36.315Z,39.37
2019-02-26T07:16:06.371Z,35.87
2019-02-26T07:18:37.113Z,38.97
2019-02-26T07:21:07.445Z,37.23
2019-02-26T07:23:39.902Z,36.57
2019-02-26T07:26:11.708Z,37.23
2019-02-26T07:28:44.008Z,37.83
2019-02-26T07:31:13.945Z,39.50
2019-02-26T07:33:44.349Z,37.20
2019-02-26T07:36:16.169Z,37.63
2019-02-26T07:38:49.120Z,37.60
2019-02-26T07:41:20.777Z,38.60
2019-02-26T07:43:51.966Z,36.40
2019-02-26T07:46:22.962Z,38.03
2019-02-26T07:48:53.879Z,37.47
2019-02-26T07:51:25.298Z,39.27
2019-02-26T07:53:56.492Z,37.13
2019-02-26T07:56:29.953Z,38.53
2019-02-26T07:59:09.810Z,38.27
2019-02-26T08:01:39.906Z,38.70
2019-02-26T08:04:13.376Z,38.17
2019-02-26T08:06:43.490Z,38.17
2019-02-26T08:09:14.721Z,38.10
2019-02-26T08:11:46.906Z,37.70
2019-02-26T08:14:18.496Z,38.27
2019-02-26T08:16:53.583Z,38.03
2019-02-26T08:19:21.789Z,37.93
2019-02-26T08:21:53.212Z,37.77
2019-02-26T08:24:24.676Z,37.57
2019-02-26T08:26:56.391Z,40.43
2019-02-26T08:29:28.895Z,40.27
2019-02-26T08:31:59.647Z,39.80
2019-02-26T08:34:30.721Z,39.07
2019-02-26T08:37:01.270Z,39.07
2019-02-26T08:39:31.690Z,38.43
2019-02-26T08:42:09.795Z,38.20
2019-02-26T08:44:40.211Z,37.93
2019-02-26T08:47:13.465Z,37.20
2019-02-26T08:49:43.514Z,39.13
2019-02-26T08:52:16.886Z,40.47
2019-02-26T08:54:46.590Z,38.87
2019-02-26T08:57:16.998Z,39.87
2019-02-26T08:59:49.522Z,40.63
2019-02-26T09:02:19.417Z,40.70
2019-02-26T09:04:49.757Z,41.07
2019-02-26T09:07:21.811Z,40.30
2019-02-26T09:09:54.319Z,40.93
2019-02-26T09:12:24.645Z,41.80
2019-02-26T09:14:56.113Z,42.43
2019-02-26T09:17:27.531Z,40.93
2019-02-26T09:20:06.971Z,42.70
2019-02-26T09:22:30.876Z,41.60
2019-02-26T09:25:02.182Z,41.00
2019-02-26T09:27:35.108Z,39.97
2019-02-26T09:30:08.518Z,42.00
2019-02-26T09:32:40.282Z,42.60
2019-02-26T09:35:12.158Z,43.40
2019-02-26T09:37:42.883Z,40.53
2019-02-26T09:40:17.133Z,42.57
2019-02-26T09:42:51.744Z,40.37
2019-02-26T09:45:22.464Z,42.43
2019-02-26T09:47:55.648Z,42.27
2019-02-26T09:50:24.721Z,42.20
2019-02-26T09:52:56.585Z,41.90
2019-02-26T09:55:27.057Z,42.50
2019-02-26T09:57:57.722Z,41.67
2019-02-26T10:00:29.525Z,42.23
2019-02-26T10:03:00.225Z,41.33
2019-02-26T10:05:52.565Z,42.20
2019-02-26T10:08:23.142Z,41.93
2019-02-26T10:10:54.974Z,42.27
2019-02-26T10:13:27.812Z,41.57
2019-02-26T10:16:01.394Z,40.57
2019-02-26T10:18:32.936Z,43.57
2019-02-26T10:21:03.417Z,41.13
2019-02-26T10:23:34.842Z,41.33
2019-02-26T10:26:05.770Z,40.77
2019-02-26T10:28:39.441Z,41.77
2019-02-26T10:31:09.712Z,42.60
2019-02-26T10:33:41.165Z,43.10
2019-02-26T10:36:14.967Z,44.03
2019-02-26T10:38:44.669Z,44.10
2019-02-26T10:41:15.017Z,42.60
2019-02-26T10:43:45.389Z,43.47
2019-02-26T10:46:15.733Z,42.60
2019-02-26T10:48:47.954Z,43.77
2019-02-26T10:51:18.188Z,44.07
2019-02-26T10:53:48.578Z,44.20
2019-02-26T10:56:18.910Z,43.60
2019-02-26T10:58:49.440Z,44.50
2019-02-26T11:01:22.632Z,43.57
2019-02-26T11:03:52.907Z,44.00
2019-02-26T11:06:23.856Z,43.63
2019-02-26T11:08:55.759Z,44.07
2019-02-26T11:11:27.309Z,43.50
2019-02-26T11:13:57.672Z,44.70
2019-02-26T11:16:30.468Z,44.80
2019-02-26T11:19:02.380Z,43.67
2019-02-26T11:21:32.277Z,43.80
2019-02-26T11:24:03.676Z,42.67
2019-02-26T11:26:35.949Z,43.67
2019-02-26T11:29:06.833Z,42.93
2019-02-26T11:31:39.621Z,43.07
2019-02-26T11:34:10.949Z,43.03
2019-02-26T11:36:41.146Z,41.93
2019-02-26T11:39:12.168Z,43.10
2019-02-26T11:41:42.642Z,42.07
2019-02-26T11:44:15.553Z,42.33
2019-02-26T11:46:46.752Z,41.97
2019-02-26T11:49:19.277Z,43.73
2019-02-26T11:51:49.169Z,43.43
2019-02-26T11:54:19.557Z,43.87
2019-02-26T11:56:52.385Z,43.07
2019-02-26T11:59:21.945Z,43.57
2019-02-26T12:01:54.228Z,40.27
2019-02-26T12:04:24.980Z,39.50
2019-02-26T12:06:55.800Z,42.23
2019-02-26T12:09:29.996Z,42.03
2019-02-26T12:12:00.887Z,43.47
2019-02-26T12:14:31.524Z,42.40
2019-02-26T12:17:01.898Z,41.83
2019-02-26T12:19:34.492Z,42.20
2019-02-26T12:22:06.084Z,43.80
2019-02-26T12:24:36.417Z,43.33
2019-02-26T12:27:09.211Z,43.00
2019-02-26T12:29:40.205Z,43.57
2019-02-26T12:32:11.162Z,42.80
2019-02-26T12:34:44.586Z,42.63
2019-02-26T12:37:13.787Z,44.13
2019-02-26T12:39:46.977Z,42.87
2019-02-26T12:42:18.485Z,42.30
2019-02-26T12:44:48.528Z,42.70
2019-02-26T12:47:21.662Z,43.37
2019-02-26T12:49:50.911Z,43.33
2019-02-26T12:52:21.889Z,43.53
2019-02-26T12:54:54.957Z,44.03
2019-02-26T12:57:26.882Z,42.70
2019-02-26T12:59:57.267Z,42.73
2019-02-26T13:02:27.613Z,41.53
2019-02-26T13:04:58.001Z,42.10
2019-02-26T13:07:28.335Z,38.83
2019-02-26T13:10:02.767Z,39.80
2019-02-26T13:12:32.228Z,39.73
2019-02-26T13:15:05.651Z,40.50
2019-02-26T13:17:34.739Z,41.33
2019-02-26T13:20:11.093Z,41.57
2019-02-26T13:22:38.289Z,43.00
2019-02-26T13:25:15.069Z,42.33
2019-02-26T13:27:43.685Z,42.90
2019-02-26T13:30:16.735Z,41.67
2019-02-26T13:32:56.306Z,41.27
2019-02-26T13:35:19.504Z,43.50
2019-02-26T13:37:50.657Z,42.30
2019-02-26T13:40:21.729Z,42.90
2019-02-26T13:45:25.822Z,44.10
2019-02-26T13:48:01.052Z,43.50
2019-02-26T13:50:29.234Z,44.47
2019-02-26T13:52:59.570Z,43.63
2019-02-26T13:55:30.114Z,42.73
2019-02-26T13:58:00.445Z,42.23
2019-02-26T14:00:31.723Z,44.17
2019-02-26T14:03:03.625Z,43.70
2019-02-26T14:05:38.081Z,43.40
2019-02-26T14:08:06.425Z,45.43
2019-02-26T14:10:37.257Z,43.63
2019-02-26T14:13:07.598Z,46.90
2019-02-26T14:15:38.285Z,45.60
2019-02-26T14:18:08.620Z,45.50
2019-02-26T14:20:39.011Z,44.60
2019-02-26T14:23:09.386Z,45.47
2019-02-26T14:25:39.754Z,45.27
2019-02-26T14:28:10.120Z,46.90
2019-02-26T14:30:40.485Z,47.00
2019-02-26T14:33:10.865Z,46.13
2019-02-26T14:35:41.209Z,45.93
2019-02-26T14:38:11.577Z,46.20
2019-02-26T14:40:41.913Z,45.00
2019-02-26T14:43:12.297Z,46.63
2019-02-26T14:45:42.649Z,48.30
2019-02-26T14:48:13.879Z,48.73
2019-02-26T14:50:44.322Z,47.93
2019-02-26T14:53:15.569Z,47.07
2019-02-26T14:55:45.913Z,45.90
2019-02-26T14:58:16.305Z,48.97
2019-02-26T15:00:55.045Z,48.63
2019-02-26T15:03:18.714Z,48.20
2019-02-26T15:05:49.074Z,48.60
2019-02-26T15:08:19.593Z,46.87
2019-02-26T15:10:49.939Z,47.60
2019-02-26T15:13:20.408Z,47.67
2019-02-26T15:15:50.766Z,49.53
2019-02-26T15:18:21.185Z,46.23
2019-02-26T15:20:51.738Z,49.00
2019-02-26T15:23:22.081Z,45.87
2019-02-26T15:25:52.450Z,48.77
2019-02-26T15:28:22.787Z,49.40
2019-02-26T15:30:53.703Z,47.37
2019-02-26T15:33:24.089Z,47.57
2019-02-26T15:35:54.773Z,49.17
2019-02-26T15:38:25.115Z,50.53
2019-02-26T15:40:55.571Z,49.60
2019-02-26T15:43:25.941Z,50.30
2019-02-26T15:45:57.748Z,48.70
2019-02-26T15:48:28.341Z,46.17
2019-02-26T15:51:02.059Z,46.60
2019-02-26T15:53:33.365Z,47.57
2019-02-26T15:56:03.745Z,49.13
2019-02-26T15:58:34.261Z,50.20
2019-02-26T16:01:12.814Z,50.83
2019-02-26T16:03:42.485Z,51.10
2019-02-26T16:06:12.881Z,50.13
2019-02-26T16:08:43.499Z,52.77
2019-02-26T16:11:14.477Z,60.37
2019-02-26T16:13:45.122Z,58.03
2019-02-26T16:16:18.036Z,60.13
2019-02-26T16:18:48.535Z,54.30
2019-02-26T16:21:19.436Z,53.17
2019-02-26T16:23:49.862Z,52.47
2019-02-26T16:26:20.245Z,52.63
2019-02-26T16:28:51.981Z,49.23
2019-02-26T16:31:22.374Z,50.50
2019-02-26T16:33:53.069Z,51.87
2019-02-26T16:36:23.540Z,50.43
2019-02-26T16:38:53.886Z,50.80
2019-02-26T16:41:24.589Z,50.07
2019-02-26T16:43:54.929Z,48.53
2019-02-26T16:46:25.601Z,49.93
2019-02-26T16:48:56.010Z,48.20
2019-02-26T16:51:26.493Z,47.93
2019-02-26T16:53:57.206Z,48.23
2019-02-26T16:56:27.574Z,49.57
2019-02-26T16:58:57.917Z,47.47
2019-02-26T17:01:28.455Z,47.17
2019-02-26T17:03:59.184Z,50.23
2019-02-26T17:06:30.774Z,47.90
2019-02-26T17:09:01.122Z,50.10
2019-02-26T17:11:33.222Z,49.33
2019-02-26T17:14:03.665Z,47.93
2019-02-26T17:16:34.140Z,48.00
2019-02-26T17:19:04.563Z,49.47
2019-02-26T17:21:35.141Z,49.27
2019-02-26T17:24:06.327Z,49.37
2019-02-26T17:26:37.061Z,53.40
2019-02-26T17:29:07.402Z,50.73
2019-02-26T17:31:37.774Z,55.33
2019-02-26T17:34:08.544Z,52.87
2019-02-26T17:36:39.018Z,51.80
2019-02-26T17:39:09.954Z,51.07
2019-02-26T17:41:44.671Z,49.13
2019-02-26T17:44:12.910Z,51.03
2019-02-26T17:46:43.317Z,50.47
2019-02-26T17:49:13.753Z,55.10
2019-02-26T17:51:44.165Z,53.67
2019-02-26T17:54:14.582Z,55.77
2019-02-26T17:56:44.982Z,50.70
2019-02-26T17:59:16.916Z,54.00
2019-02-26T18:01:47.433Z,51.00
2019-02-26T18:04:17.773Z,56.43
2019-02-26T18:06:48.185Z,50.47
2019-02-26T18:09:18.543Z,56.43
2019-02-26T18:11:48.986Z,52.00
2019-02-26T18:14:19.349Z,52.50
2019-02-26T18:16:49.735Z,49.70
2019-02-26T18:19:20.102Z,50.53
2019-02-26T18:21:51.748Z,50.23
2019-02-26T18:24:22.243Z,50.60
2019-02-26T18:26:52.597Z,54.30
2019-02-26T18:29:25.326Z,49.13
2019-02-26T18:31:55.013Z,53.77
2019-02-26T18:34:25.476Z,51.57
2019-02-26T18:36:56.185Z,54.83
2019-02-26T18:39:26.566Z,55.37
2019-02-26T18:41:56.928Z,60.57
2019-02-26T18:44:28.598Z,51.57
2019-02-26T18:46:59.009Z,50.60
2019-02-26T18:49:29.477Z,52.50
2019-02-26T18:51:59.840Z,60.73
2019-02-26T18:54:30.173Z,59.00
2019-02-26T18:57:01.635Z,54.57
2019-02-26T18:59:31.990Z,54.87
2019-02-26T19:02:03.522Z,52.57
2019-02-26T19:04:34.405Z,52.77
2019-02-26T19:07:05.295Z,60.23
2019-02-26T19:09:35.750Z,54.03
2019-02-26T19:12:06.489Z,51.43
2019-02-26T19:14:37.011Z,49.90
2019-02-26T19:17:08.514Z,50.63
2019-02-26T19:19:39.733Z,50.13
2019-02-26T19:22:11.003Z,48.30
2019-02-26T19:24:41.333Z,50.60
2019-02-26T19:27:11.741Z,51.80
2019-02-26T19:29:42.163Z,48.90
2019-02-26T19:32:15.411Z,49.47
2019-02-26T19:34:44.574Z,57.80
2019-02-26T19:37:16.725Z,52.00
2019-02-26T19:39:46.906Z,47.47
2019-02-26T19:42:19.054Z,56.60
2019-02-26T19:44:49.322Z,59.87
2019-02-26T19:47:20.532Z,61.43
2019-02-26T19:49:51.652Z,61.43
2019-02-26T19:52:22.007Z,52.67
2019-02-26T19:54:52.337Z,54.47
2019-02-26T19:57:22.705Z,47.73
2019-02-26T19:59:53.110Z,46.83
2019-02-26T20:02:23.722Z,52.90
2019-02-26T20:04:54.105Z,50.33
2019-02-26T20:07:24.474Z,49.57
2019-02-26T20:09:56.125Z,46.57
2019-02-26T20:12:28.565Z,57.10
2019-02-26T20:14:58.473Z,64.63
2019-02-26T20:17:28.835Z,68.83
2019-02-26T20:19:59.319Z,59.90
2019-02-26T20:22:30.621Z,52.13
2019-02-26T20:25:01.750Z,52.57
2019-02-26T20:27:32.122Z,50.40
2019-02-26T20:30:02.510Z,52.33
2019-02-26T20:32:33.037Z,53.07
2019-02-26T20:35:03.897Z,52.40
2019-02-26T20:37:34.318Z,55.30
2019-02-26T20:40:04.806Z,60.77
2019-02-26T20:42:35.171Z,57.83
2019-02-26T20:45:05.951Z,48.50
2019-02-26T20:47:36.294Z,49.60
2019-02-26T20:50:07.293Z,58.63
2019-02-26T20:52:37.721Z,58.90
2019-02-26T20:55:10.063Z,51.97
2019-02-26T20:57:40.481Z,56.00
2019-02-26T21:00:13.567Z,50.53
2019-02-26T21:02:45.597Z,51.77
2019-02-26T21:05:16.421Z,57.37
2019-02-26T21:07:47.109Z,61.00
2019-02-26T21:10:17.793Z,58.47
2019-02-26T21:12:48.213Z,51.07
2019-02-26T21:15:19.554Z,60.13
2019-02-26T21:17:50.973Z,60.73
2019-02-26T21:20:22.439Z,66.30
2019-02-26T21:22:58.966Z,66.50
2019-02-26T21:25:29.313Z,52.53
2019-02-26T21:28:01.408Z,53.00
2019-02-26T21:30:31.649Z,51.27
2019-02-26T21:33:01.995Z,53.23
2019-02-26T21:35:32.457Z,51.40
2019-02-26T21:38:05.689Z,59.13
2019-02-26T21:40:34.818Z,65.83
2019-02-26T21:43:05.166Z,56.00
2019-02-26T21:45:35.640Z,53.97
2019-02-26T21:48:05.972Z,57.13
2019-02-26T21:50:36.720Z,55.53
2019-02-26T21:53:07.054Z,49.90
2019-02-26T21:55:44.496Z,56.97
2019-02-26T21:58:09.497Z,62.00
2019-02-26T22:00:39.882Z,62.87
2019-02-26T22:03:10.461Z,63.73
2019-02-26T22:05:40.841Z,58.57
2019-02-26T22:08:11.198Z,55.20
2019-02-26T22:10:42.826Z,54.30
2019-02-26T22:13:13.551Z,55.10
2019-02-26T22:15:45.141Z,49.77
2019-02-26T22:18:15.513Z,54.40
2019-02-26T22:20:45.991Z,56.53
2019-02-26T22:23:16.457Z,56.50
2019-02-26T22:25:46.841Z,50.47
2019-02-26T22:28:17.213Z,56.53
2019-02-26T22:30:47.545Z,50.80
2019-02-26T22:33:17.939Z,55.13
2019-02-26T22:35:48.286Z,56.43
2019-02-26T22:38:18.665Z,49.50
2019-02-26T22:40:49.016Z,59.00
2019-02-26T22:43:19.405Z,64.40
2019-02-26T22:45:49.833Z,67.00
2019-02-26T22:48:20.377Z,70.33
2019-02-26T22:50:50.717Z,72.83
2019-02-26T22:53:21.090Z,66.87
2019-02-26T22:55:51.440Z,62.37
2019-02-26T22:58:21.833Z,54.90
2019-02-26T23:01:30.496Z,60.97
2019-02-26T23:04:00.821Z,54.53
2019-02-26T23:06:31.751Z,62.70
2019-02-26T23:09:03.757Z,67.13
2019-02-26T23:11:36.132Z,69.47
2019-02-26T23:14:07.510Z,70.03
2019-02-26T23:16:37.861Z,66.70
2019-02-26T23:19:08.267Z,66.77
2019-02-26T23:21:38.978Z,67.23
2019-02-26T23:24:09.771Z,60.43
2019-02-26T23:26:42.500Z,67.20
2019-02-26T23:29:12.829Z,70.40
2019-02-26T23:31:43.246Z,70.73
2019-02-26T23:34:13.621Z,59.83
2019-02-26T23:36:44.161Z,65.07
2019-02-26T23:39:15.897Z,65.83
2019-02-26T23:41:48.821Z,68.67
2019-02-26T23:44:19.225Z,72.97
2019-02-26T23:46:49.569Z,62.17
2019-02-26T23:49:21.021Z,61.03
2019-02-26T23:51:53.726Z,61.40
2019-02-26T23:54:26.072Z,59.33
2019-02-26T23:56:56.509Z,64.40
2019-02-26T23:59:26.971Z,66.10
